sensor_id;sensor_type;location;lat;lon;timestamp;temperature;humidity
13174;DHT22;6652;48.802;9.190;2023-08-17T00:00:00;21.10;99.90
13174;DHT22;6652;48.802;9.190;2023-08-17T00:02:29;21.10;99.90
13174;DHT22;6652;48.802;9.190;2023-08-17T00:04:56;21.10;99.90
13174;DHT22;6652;48.802;9.190;2023-08-17T00:07:23;21.20;99.90
13174;DHT22;6652;48.802;9.190;2023-08-17T00:09:50;21.00;99.90
13174;DHT22;6652;48.802;9.190;2023-08-17T00:12:16;21.20;99.90
13174;DHT22;6652;48.802;9.190;2023-08-17T00:14:44;21.00;99.90
13174;DHT22;6652;48.802;9.190;2023-08-17T00:17:11;21.00;99.90
13174;DHT22;6652;48.802;9.190;2023-08-17T00:19:38;21.00;99.90
13174;DHT22;6652;48.802;9.190;2023-08-17T00:22:05;20.80;99.90
13174;DHT22;6652;48.802;9.190;2023-08-17T00:24:31;21.00;99.90
13174;DHT22;6652;48.802;9.190;2023-08-17T00:26:58;21.00;99.90
13174;DHT22;6652;48.802;9.190;2023-08-17T00:29:25;21.00;99.90
13174;DHT22;6652;48.802;9.190;2023-08-17T00:31:53;21.10;99.90
13174;DHT22;6652;48.802;9.190;2023-08-17T00:34:20;21.10;99.90
13174;DHT22;6652;48.802;9.190;2023-08-17T00:36:47;21.10;99.90
13174;DHT22;6652;48.802;9.190;2023-08-17T00:39:14;21.10;99.90
13174;DHT22;6652;48.802;9.190;2023-08-17T00:41:41;21.10;99.90
13174;DHT22;6652;48.802;9.190;2023-08-17T00:44:07;21.10;99.90
13174;DHT22;6652;48.802;9.190;2023-08-17T00:46:38;21.20;99.90
13174;DHT22;6652;48.802;9.190;2023-08-17T00:49:06;21.10;99.90
13174;DHT22;6652;48.802;9.190;2023-08-17T00:51:33;21.10;99.90
13174;DHT22;6652;48.802;9.190;2023-08-17T00:54:02;21.10;99.90
13174;DHT22;6652;48.802;9.190;2023-08-17T00:56:29;21.10;99.90
13174;DHT22;6652;48.802;9.190;2023-08-17T00:58:56;21.20;99.90
13174;DHT22;6652;48.802;9.190;2023-08-17T01:01:23;21.20;99.90
13174;DHT22;6652;48.802;9.190;2023-08-17T01:03:50;21.20;99.90
13174;DHT22;6652;48.802;9.190;2023-08-17T01:06:18;21.20;99.90
13174;DHT22;6652;48.802;9.190;2023-08-17T01:08:45;21.20;99.90
13174;DHT22;6652;48.802;9.190;2023-08-17T01:11:22;21.10;99.90
13174;DHT22;6652;48.802;9.190;2023-08-17T01:13:55;21.20;99.90
13174;DHT22;6652;48.802;9.190;2023-08-17T01:16:27;21.20;99.90
13174;DHT22;6652;48.802;9.190;2023-08-17T01:18:55;21.20;99.90
13174;DHT22;6652;48.802;9.190;2023-08-17T01:21:29;21.20;99.90
13174;DHT22;6652;48.802;9.190;2023-08-17T01:24:03;21.20;99.90
13174;DHT22;6652;48.802;9.190;2023-08-17T01:26:29;21.30;99.90
13174;DHT22;6652;48.802;9.190;2023-08-17T01:28:56;21.30;99.90
13174;DHT22;6652;48.802;9.190;2023-08-17T01:31:26;21.40;99.90
13174;DHT22;6652;48.802;9.190;2023-08-17T01:33:59;21.40;99.90
13174;DHT22;6652;48.802;9.190;2023-08-17T01:36:31;21.40;99.90
13174;DHT22;6652;48.802;9.190;2023-08-17T01:39:01;21.40;99.90
13174;DHT22;6652;48.802;9.190;2023-08-17T01:41:30;21.40;99.90
13174;DHT22;6652;48.802;9.190;2023-08-17T01:43:59;21.40;99.90
13174;DHT22;6652;48.802;9.190;2023-08-17T01:46:30;21.40;99.90
13174;DHT22;6652;48.802;9.190;2023-08-17T01:48:57;21.40;99.90
13174;DHT22;6652;48.802;9.190;2023-08-17T01:51:24;21.90;99.90
13174;DHT22;6652;48.802;9.190;2023-08-17T01:53:51;21.40;99.90
13174;DHT22;6652;48.802;9.190;2023-08-17T01:56:19;21.40;99.90
13174;DHT22;6652;48.802;9.190;2023-08-17T01:58:46;21.40;99.90
13174;DHT22;6652;48.802;9.190;2023-08-17T02:01:13;21.50;99.90
13174;DHT22;6652;48.802;9.190;2023-08-17T02:03:40;21.50;99.90
13174;DHT22;6652;48.802;9.190;2023-08-17T02:06:07;21.50;99.90
13174;DHT22;6652;48.802;9.190;2023-08-17T02:08:34;21.50;99.90
13174;DHT22;6652;48.802;9.190;2023-08-17T02:11:00;21.50;99.90
13174;DHT22;6652;48.802;9.190;2023-08-17T02:13:29;21.50;99.90
13174;DHT22;6652;48.802;9.190;2023-08-17T02:15:56;21.40;99.90
13174;DHT22;6652;48.802;9.190;2023-08-17T02:18:23;21.50;99.90
13174;DHT22;6652;48.802;9.190;2023-08-17T02:20:50;21.50;99.90
13174;DHT22;6652;48.802;9.190;2023-08-17T02:23:17;21.50;99.90
13174;DHT22;6652;48.802;9.190;2023-08-17T02:25:44;21.50;99.90
13174;DHT22;6652;48.802;9.190;2023-08-17T02:28:10;21.50;99.90
13174;DHT22;6652;48.802;9.190;2023-08-17T02:30:39;21.50;99.90
13174;DHT22;6652;48.802;9.190;2023-08-17T02:33:06;21.50;99.90
13174;DHT22;6652;48.802;9.190;2023-08-17T02:35:33;21.50;99.90
13174;DHT22;6652;48.802;9.190;2023-08-17T02:37:59;21.50;99.90
13174;DHT22;6652;48.802;9.190;2023-08-17T02:40:26;21.50;99.90
13174;DHT22;6652;48.802;9.190;2023-08-17T02:42:53;21.50;99.90
13174;DHT22;6652;48.802;9.190;2023-08-17T02:45:20;21.50;99.90
13174;DHT22;6652;48.802;9.190;2023-08-17T02:47:48;21.50;99.90
13174;DHT22;6652;48.802;9.190;2023-08-17T02:50:15;21.60;99.90
13174;DHT22;6652;48.802;9.190;2023-08-17T02:52:42;21.50;99.90
13174;DHT22;6652;48.802;9.190;2023-08-17T02:55:09;21.50;99.90
13174;DHT22;6652;48.802;9.190;2023-08-17T02:57:36;21.50;99.90
13174;DHT22;6652;48.802;9.190;2023-08-17T03:00:03;21.50;99.90
13174;DHT22;6652;48.802;9.190;2023-08-17T03:02:30;21.50;99.90
13174;DHT22;6652;48.802;9.190;2023-08-17T03:04:58;21.50;99.90
13174;DHT22;6652;48.802;9.190;2023-08-17T03:07:25;21.40;99.90
13174;DHT22;6652;48.802;9.190;2023-08-17T03:09:52;21.50;99.90
13174;DHT22;6652;48.802;9.190;2023-08-17T03:12:18;21.40;99.90
13174;DHT22;6652;48.802;9.190;2023-08-17T03:14:46;21.40;99.90
13174;DHT22;6652;48.802;9.190;2023-08-17T03:17:13;21.40;99.90
13174;DHT22;6652;48.802;9.190;2023-08-17T03:19:40;21.30;99.90
13174;DHT22;6652;48.802;9.190;2023-08-17T03:22:08;21.30;99.90
13174;DHT22;6652;48.802;9.190;2023-08-17T03:24:35;21.30;99.90
13174;DHT22;6652;48.802;9.190;2023-08-17T03:27:02;21.30;99.90
13174;DHT22;6652;48.802;9.190;2023-08-17T03:29:28;21.20;99.90
13174;DHT22;6652;48.802;9.190;2023-08-17T03:31:55;21.20;99.90
13174;DHT22;6652;48.802;9.190;2023-08-17T03:34:22;21.20;99.90
13174;DHT22;6652;48.802;9.190;2023-08-17T03:36:49;21.30;99.90
13174;DHT22;6652;48.802;9.190;2023-08-17T03:39:17;21.30;99.90
13174;DHT22;6652;48.802;9.190;2023-08-17T03:41:44;21.20;99.90
13174;DHT22;6652;48.802;9.190;2023-08-17T03:44:11;21.30;99.90
13174;DHT22;6652;48.802;9.190;2023-08-17T03:46:39;21.30;99.90
13174;DHT22;6652;48.802;9.190;2023-08-17T03:49:06;21.30;99.90
13174;DHT22;6652;48.802;9.190;2023-08-17T03:51:32;21.20;99.90
13174;DHT22;6652;48.802;9.190;2023-08-17T03:53:59;21.30;99.90
13174;DHT22;6652;48.802;9.190;2023-08-17T03:56:27;21.30;99.90
13174;DHT22;6652;48.802;9.190;2023-08-17T03:58:54;21.30;99.90
13174;DHT22;6652;48.802;9.190;2023-08-17T04:01:21;21.30;99.90
13174;DHT22;6652;48.802;9.190;2023-08-17T04:03:47;21.30;99.90
13174;DHT22;6652;48.802;9.190;2023-08-17T04:06:14;21.30;99.90
13174;DHT22;6652;48.802;9.190;2023-08-17T04:08:41;21.30;99.90
13174;DHT22;6652;48.802;9.190;2023-08-17T04:11:08;21.30;99.90
13174;DHT22;6652;48.802;9.190;2023-08-17T04:13:36;21.30;99.90
13174;DHT22;6652;48.802;9.190;2023-08-17T04:16:03;21.30;99.90
13174;DHT22;6652;48.802;9.190;2023-08-17T04:18:30;21.30;99.90
13174;DHT22;6652;48.802;9.190;2023-08-17T04:20:57;21.40;99.90
13174;DHT22;6652;48.802;9.190;2023-08-17T04:23:23;21.40;99.90
13174;DHT22;6652;48.802;9.190;2023-08-17T04:25:50;21.40;99.90
13174;DHT22;6652;48.802;9.190;2023-08-17T04:28:17;21.40;99.90
13174;DHT22;6652;48.802;9.190;2023-08-17T04:30:45;21.40;99.90
13174;DHT22;6652;48.802;9.190;2023-08-17T04:33:12;21.40;99.90
13174;DHT22;6652;48.802;9.190;2023-08-17T04:35:39;21.50;99.90
13174;DHT22;6652;48.802;9.190;2023-08-17T04:38:06;21.50;99.90
13174;DHT22;6652;48.802;9.190;2023-08-17T04:40:33;21.50;99.90
13174;DHT22;6652;48.802;9.190;2023-08-17T04:43:00;21.50;99.90
13174;DHT22;6652;48.802;9.190;2023-08-17T04:45:27;21.50;99.90
13174;DHT22;6652;48.802;9.190;2023-08-17T04:47:55;21.50;99.90
13174;DHT22;6652;48.802;9.190;2023-08-17T04:50:21;21.50;99.90
13174;DHT22;6652;48.802;9.190;2023-08-17T04:52:48;21.50;99.90
13174;DHT22;6652;48.802;9.190;2023-08-17T04:55:15;21.60;99.90
13174;DHT22;6652;48.802;9.190;2023-08-17T04:57:42;21.60;99.90
13174;DHT22;6652;48.802;9.190;2023-08-17T05:00:11;21.60;99.90
13174;DHT22;6652;48.802;9.190;2023-08-17T05:02:38;21.60;99.90
13174;DHT22;6652;48.802;9.190;2023-08-17T05:05:09;21.60;99.90
13174;DHT22;6652;48.802;9.190;2023-08-17T05:07:36;21.70;99.90
13174;DHT22;6652;48.802;9.190;2023-08-17T05:10:03;21.70;99.90
13174;DHT22;6652;48.802;9.190;2023-08-17T05:12:30;21.70;99.90
13174;DHT22;6652;48.802;9.190;2023-08-17T05:14:57;21.70;99.90
13174;DHT22;6652;48.802;9.190;2023-08-17T05:17:24;21.80;99.90
13174;DHT22;6652;48.802;9.190;2023-08-17T05:19:51;21.70;99.90
13174;DHT22;6652;48.802;9.190;2023-08-17T05:22:19;21.70;99.90
13174;DHT22;6652;48.802;9.190;2023-08-17T05:24:46;21.70;99.90
13174;DHT22;6652;48.802;9.190;2023-08-17T05:27:13;21.70;99.90
13174;DHT22;6652;48.802;9.190;2023-08-17T05:29:39;21.70;99.90
13174;DHT22;6652;48.802;9.190;2023-08-17T05:32:06;21.70;99.90
13174;DHT22;6652;48.802;9.190;2023-08-17T05:34:33;21.80;99.90
13174;DHT22;6652;48.802;9.190;2023-08-17T05:37:00;21.80;99.90
13174;DHT22;6652;48.802;9.190;2023-08-17T05:39:28;21.90;99.90
13174;DHT22;6652;48.802;9.190;2023-08-17T05:41:55;22.00;99.90
13174;DHT22;6652;48.802;9.190;2023-08-17T05:44:21;22.10;99.90
13174;DHT22;6652;48.802;9.190;2023-08-17T05:46:48;22.00;99.90
13174;DHT22;6652;48.802;9.190;2023-08-17T05:49:15;22.00;99.90
13174;DHT22;6652;48.802;9.190;2023-08-17T05:51:42;22.10;99.90
13174;DHT22;6652;48.802;9.190;2023-08-17T05:54:08;22.20;99.90
13174;DHT22;6652;48.802;9.190;2023-08-17T05:56:37;22.20;99.90
13174;DHT22;6652;48.802;9.190;2023-08-17T05:59:03;22.30;99.90
13174;DHT22;6652;48.802;9.190;2023-08-17T06:01:30;22.30;99.90
13174;DHT22;6652;48.802;9.190;2023-08-17T06:03:57;22.40;99.90
13174;DHT22;6652;48.802;9.190;2023-08-17T06:06:24;22.50;99.90
13174;DHT22;6652;48.802;9.190;2023-08-17T06:08:51;22.50;99.90
13174;DHT22;6652;48.802;9.190;2023-08-17T06:11:18;22.40;99.90
13174;DHT22;6652;48.802;9.190;2023-08-17T06:13:46;22.40;99.90
13174;DHT22;6652;48.802;9.190;2023-08-17T06:16:13;22.50;99.90
13174;DHT22;6652;48.802;9.190;2023-08-17T06:18:40;22.40;99.90
13174;DHT22;6652;48.802;9.190;2023-08-17T06:21:07;22.40;99.90
13174;DHT22;6652;48.802;9.190;2023-08-17T06:23:37;22.30;99.90
13174;DHT22;6652;48.802;9.190;2023-08-17T06:26:03;22.40;99.90
13174;DHT22;6652;48.802;9.190;2023-08-17T06:28:30;22.50;99.90
13174;DHT22;6652;48.802;9.190;2023-08-17T06:30:58;22.70;99.90
13174;DHT22;6652;48.802;9.190;2023-08-17T06:33:25;22.90;99.90
13174;DHT22;6652;48.802;9.190;2023-08-17T06:35:52;23.20;99.90
13174;DHT22;6652;48.802;9.190;2023-08-17T06:38:19;23.70;99.90
13174;DHT22;6652;48.802;9.190;2023-08-17T06:40:45;24.00;99.90
13174;DHT22;6652;48.802;9.190;2023-08-17T06:43:13;24.10;99.90
13174;DHT22;6652;48.802;9.190;2023-08-17T06:45:40;24.10;99.90
13174;DHT22;6652;48.802;9.190;2023-08-17T06:48:08;24.20;99.90
13174;DHT22;6652;48.802;9.190;2023-08-17T06:50:35;24.20;99.90
13174;DHT22;6652;48.802;9.190;2023-08-17T06:53:02;24.10;99.90
13174;DHT22;6652;48.802;9.190;2023-08-17T06:55:28;24.10;99.90
13174;DHT22;6652;48.802;9.190;2023-08-17T06:57:55;23.90;99.90
13174;DHT22;6652;48.802;9.190;2023-08-17T07:00:22;23.80;99.90
13174;DHT22;6652;48.802;9.190;2023-08-17T07:02:50;23.70;99.90
13174;DHT22;6652;48.802;9.190;2023-08-17T07:05:18;23.90;99.90
13174;DHT22;6652;48.802;9.190;2023-08-17T07:07:45;24.10;99.90
13174;DHT22;6652;48.802;9.190;2023-08-17T07:10:11;25.00;99.90
13174;DHT22;6652;48.802;9.190;2023-08-17T07:12:38;25.90;99.90
13174;DHT22;6652;48.802;9.190;2023-08-17T07:15:06;27.10;99.90
13174;DHT22;6652;48.802;9.190;2023-08-17T07:17:33;28.10;99.90
13174;DHT22;6652;48.802;9.190;2023-08-17T07:20:02;28.60;99.90
13174;DHT22;6652;48.802;9.190;2023-08-17T07:22:30;29.50;99.90
13174;DHT22;6652;48.802;9.190;2023-08-17T07:24:57;30.00;99.90
13174;DHT22;6652;48.802;9.190;2023-08-17T07:27:24;30.00;99.90
13174;DHT22;6652;48.802;9.190;2023-08-17T07:29:50;30.00;99.90
13174;DHT22;6652;48.802;9.190;2023-08-17T07:32:18;30.90;99.90
13174;DHT22;6652;48.802;9.190;2023-08-17T07:34:46;32.00;99.90
13174;DHT22;6652;48.802;9.190;2023-08-17T07:37:13;32.70;99.90
13174;DHT22;6652;48.802;9.190;2023-08-17T07:39:41;32.90;99.90
13174;DHT22;6652;48.802;9.190;2023-08-17T07:42:08;33.00;99.90
13174;DHT22;6652;48.802;9.190;2023-08-17T07:44:34;33.30;99.90
13174;DHT22;6652;48.802;9.190;2023-08-17T07:47:01;33.70;99.90
13174;DHT22;6652;48.802;9.190;2023-08-17T07:49:28;34.30;99.90
13174;DHT22;6652;48.802;9.190;2023-08-17T07:51:55;35.10;99.90
13174;DHT22;6652;48.802;9.190;2023-08-17T07:54:22;35.30;99.90
13174;DHT22;6652;48.802;9.190;2023-08-17T07:56:50;34.70;99.70
13174;DHT22;6652;48.802;9.190;2023-08-17T07:59:16;34.60;99.60
13174;DHT22;6652;48.802;9.190;2023-08-17T08:01:43;34.50;99.70
13174;DHT22;6652;48.802;9.190;2023-08-17T08:04:10;34.60;99.60
13174;DHT22;6652;48.802;9.190;2023-08-17T08:06:37;35.00;98.90
13174;DHT22;6652;48.802;9.190;2023-08-17T08:09:04;35.30;97.90
13174;DHT22;6652;48.802;9.190;2023-08-17T08:11:31;35.40;97.40
13174;DHT22;6652;48.802;9.190;2023-08-17T08:14:00;35.60;96.50
13174;DHT22;6652;48.802;9.190;2023-08-17T08:16:27;35.30;96.60
13174;DHT22;6652;48.802;9.190;2023-08-17T08:18:55;35.40;96.20
13174;DHT22;6652;48.802;9.190;2023-08-17T08:21:22;35.10;96.40
13174;DHT22;6652;48.802;9.190;2023-08-17T08:23:49;35.30;96.70
13174;DHT22;6652;48.802;9.190;2023-08-17T08:26:16;35.50;95.00
13174;DHT22;6652;48.802;9.190;2023-08-17T08:28:42;34.80;95.60
13174;DHT22;6652;48.802;9.190;2023-08-17T08:31:11;34.80;96.60
13174;DHT22;6652;48.802;9.190;2023-08-17T08:33:37;35.10;96.00
13174;DHT22;6652;48.802;9.190;2023-08-17T08:36:04;35.70;95.20
13174;DHT22;6652;48.802;9.190;2023-08-17T08:38:31;35.80;94.40
13174;DHT22;6652;48.802;9.190;2023-08-17T08:40:58;36.10;94.50
13174;DHT22;6652;48.802;9.190;2023-08-17T08:43:25;36.60;93.80
13174;DHT22;6652;48.802;9.190;2023-08-17T08:45:52;36.90;92.00
13174;DHT22;6652;48.802;9.190;2023-08-17T08:48:22;36.20;92.40
13174;DHT22;6652;48.802;9.190;2023-08-17T08:50:50;36.40;92.30
13174;DHT22;6652;48.802;9.190;2023-08-17T08:53:21;36.70;92.00
13174;DHT22;6652;48.802;9.190;2023-08-17T08:55:55;37.20;91.40
13174;DHT22;6652;48.802;9.190;2023-08-17T08:58:23;37.40;91.30
13174;DHT22;6652;48.802;9.190;2023-08-17T09:00:52;37.50;89.40
13174;DHT22;6652;48.802;9.190;2023-08-17T09:03:20;37.50;88.90
13174;DHT22;6652;48.802;9.190;2023-08-17T09:05:48;37.40;88.70
13174;DHT22;6652;48.802;9.190;2023-08-17T09:08:20;37.60;89.20
13174;DHT22;6652;48.802;9.190;2023-08-17T09:10:47;38.30;87.00
13174;DHT22;6652;48.802;9.190;2023-08-17T09:13:14;38.50;84.80
13174;DHT22;6652;48.802;9.190;2023-08-17T09:15:41;38.50;85.50
13174;DHT22;6652;48.802;9.190;2023-08-17T09:18:08;38.10;83.60
13174;DHT22;6652;48.802;9.190;2023-08-17T09:20:38;37.70;84.80
13174;DHT22;6652;48.802;9.190;2023-08-17T09:23:09;37.10;87.50
13174;DHT22;6652;48.802;9.190;2023-08-17T09:25:38;37.10;87.90
13174;DHT22;6652;48.802;9.190;2023-08-17T09:28:09;37.40;87.50
13174;DHT22;6652;48.802;9.190;2023-08-17T09:30:52;37.10;87.10
13174;DHT22;6652;48.802;9.190;2023-08-17T09:33:20;37.20;85.60
13174;DHT22;6652;48.802;9.190;2023-08-17T09:35:49;37.40;86.30
13174;DHT22;6652;48.802;9.190;2023-08-17T09:38:16;37.90;85.70
13174;DHT22;6652;48.802;9.190;2023-08-17T09:40:43;38.50;83.30
13174;DHT22;6652;48.802;9.190;2023-08-17T09:43:10;38.60;82.70
13174;DHT22;6652;48.802;9.190;2023-08-17T09:45:38;38.70;81.60
13174;DHT22;6652;48.802;9.190;2023-08-17T09:48:06;38.40;81.10
13174;DHT22;6652;48.802;9.190;2023-08-17T09:50:33;38.70;80.60
13174;DHT22;6652;48.802;9.190;2023-08-17T09:53:02;39.30;79.20
13174;DHT22;6652;48.802;9.190;2023-08-17T09:55:30;39.60;78.50
13174;DHT22;6652;48.802;9.190;2023-08-17T09:57:58;39.20;77.30
13174;DHT22;6652;48.802;9.190;2023-08-17T10:00:27;38.90;78.20
13174;DHT22;6652;48.802;9.190;2023-08-17T10:02:55;38.80;78.10
13174;DHT22;6652;48.802;9.190;2023-08-17T10:05:25;38.00;80.90
13174;DHT22;6652;48.802;9.190;2023-08-17T10:07:57;37.10;81.90
13174;DHT22;6652;48.802;9.190;2023-08-17T10:10:29;36.40;84.20
13174;DHT22;6652;48.802;9.190;2023-08-17T10:13:01;36.70;84.20
13174;DHT22;6652;48.802;9.190;2023-08-17T10:15:33;37.10;86.50
13174;DHT22;6652;48.802;9.190;2023-08-17T10:18:05;37.00;83.60
13174;DHT22;6652;48.802;9.190;2023-08-17T10:20:38;36.00;85.90
13174;DHT22;6652;48.802;9.190;2023-08-17T10:23:12;34.80;88.10
13174;DHT22;6652;48.802;9.190;2023-08-17T10:25:42;34.10;90.90
13174;DHT22;6652;48.802;9.190;2023-08-17T10:28:10;35.00;90.20
13174;DHT22;6652;48.802;9.190;2023-08-17T10:30:37;35.50;88.20
13174;DHT22;6652;48.802;9.190;2023-08-17T10:33:05;36.00;87.90
13174;DHT22;6652;48.802;9.190;2023-08-17T10:35:32;36.40;86.80
13174;DHT22;6652;48.802;9.190;2023-08-17T10:37:59;36.70;87.10
13174;DHT22;6652;48.802;9.190;2023-08-17T10:40:27;36.60;87.30
13174;DHT22;6652;48.802;9.190;2023-08-17T10:42:55;36.60;85.90
13174;DHT22;6652;48.802;9.190;2023-08-17T10:45:27;36.80;85.50
13174;DHT22;6652;48.802;9.190;2023-08-17T10:48:01;36.70;85.20
13174;DHT22;6652;48.802;9.190;2023-08-17T10:51:00;36.10;86.70
13174;DHT22;6652;48.802;9.190;2023-08-17T10:53:27;34.70;90.20
13174;DHT22;6652;48.802;9.190;2023-08-17T10:56:00;34.10;90.90
13174;DHT22;6652;48.802;9.190;2023-08-17T10:58:30;33.60;91.20
13174;DHT22;6652;48.802;9.190;2023-08-17T11:00:57;33.20;91.60
13174;DHT22;6652;48.802;9.190;2023-08-17T11:03:24;32.80;92.30
13174;DHT22;6652;48.802;9.190;2023-08-17T11:05:52;32.40;93.10
13174;DHT22;6652;48.802;9.190;2023-08-17T11:08:22;32.30;93.50
13174;DHT22;6652;48.802;9.190;2023-08-17T11:10:57;32.50;93.50
13174;DHT22;6652;48.802;9.190;2023-08-17T11:13:28;32.60;94.00
13174;DHT22;6652;48.802;9.190;2023-08-17T11:15:58;32.70;94.30
13174;DHT22;6652;48.802;9.190;2023-08-17T11:18:25;32.50;94.00
13174;DHT22;6652;48.802;9.190;2023-08-17T11:20:53;32.40;93.50
13174;DHT22;6652;48.802;9.190;2023-08-17T11:23:21;32.50;93.60
13174;DHT22;6652;48.802;9.190;2023-08-17T11:25:49;32.60;94.00
13174;DHT22;6652;48.802;9.190;2023-08-17T11:28:16;32.70;93.90
13174;DHT22;6652;48.802;9.190;2023-08-17T11:30:45;32.50;94.00
13174;DHT22;6652;48.802;9.190;2023-08-17T11:33:12;32.40;94.20
13174;DHT22;6652;48.802;9.190;2023-08-17T11:35:39;32.50;94.50
13174;DHT22;6652;48.802;9.190;2023-08-17T11:38:06;32.40;94.40
13174;DHT22;6652;48.802;9.190;2023-08-17T11:40:33;32.10;95.00
13174;DHT22;6652;48.802;9.190;2023-08-17T11:43:01;32.00;95.40
13174;DHT22;6652;48.802;9.190;2023-08-17T11:45:28;32.20;96.00
13174;DHT22;6652;48.802;9.190;2023-08-17T11:47:56;32.30;95.20
13174;DHT22;6652;48.802;9.190;2023-08-17T11:50:25;32.50;95.20
13174;DHT22;6652;48.802;9.190;2023-08-17T11:52:52;32.50;95.70
13174;DHT22;6652;48.802;9.190;2023-08-17T11:55:19;32.90;96.00
13174;DHT22;6652;48.802;9.190;2023-08-17T11:57:46;33.20;94.80
13174;DHT22;6652;48.802;9.190;2023-08-17T12:00:17;33.10;94.30
13174;DHT22;6652;48.802;9.190;2023-08-17T12:02:47;33.20;94.10
13174;DHT22;6652;48.802;9.190;2023-08-17T12:05:19;33.20;94.50
13174;DHT22;6652;48.802;9.190;2023-08-17T12:07:46;33.20;94.90
13174;DHT22;6652;48.802;9.190;2023-08-17T12:10:13;33.00;94.90
13174;DHT22;6652;48.802;9.190;2023-08-17T12:12:40;32.80;95.40
13174;DHT22;6652;48.802;9.190;2023-08-17T12:15:07;32.60;95.60
13174;DHT22;6652;48.802;9.190;2023-08-17T12:17:36;32.50;95.80
13174;DHT22;6652;48.802;9.190;2023-08-17T12:20:08;32.30;96.60
13174;DHT22;6652;48.802;9.190;2023-08-17T12:22:39;32.10;96.60
13174;DHT22;6652;48.802;9.190;2023-08-17T12:25:08;32.00;97.00
13174;DHT22;6652;48.802;9.190;2023-08-17T12:27:35;31.90;97.50
13174;DHT22;6652;48.802;9.190;2023-08-17T12:30:03;31.80;97.90
13174;DHT22;6652;48.802;9.190;2023-08-17T12:32:30;31.80;98.50
13174;DHT22;6652;48.802;9.190;2023-08-17T12:34:56;31.50;98.60
13174;DHT22;6652;48.802;9.190;2023-08-17T12:37:23;31.30;99.20
13174;DHT22;6652;48.802;9.190;2023-08-17T12:39:51;31.10;99.50
13174;DHT22;6652;48.802;9.190;2023-08-17T12:42:18;31.10;99.90
13174;DHT22;6652;48.802;9.190;2023-08-17T12:44:45;31.00;99.90
13174;DHT22;6652;48.802;9.190;2023-08-17T12:47:11;30.80;99.90
13174;DHT22;6652;48.802;9.190;2023-08-17T12:49:38;30.60;99.90
13174;DHT22;6652;48.802;9.190;2023-08-17T12:52:05;30.50;99.90
13174;DHT22;6652;48.802;9.190;2023-08-17T12:54:32;30.40;99.90
13174;DHT22;6652;48.802;9.190;2023-08-17T12:57:00;30.30;99.90
13174;DHT22;6652;48.802;9.190;2023-08-17T12:59:28;30.20;99.90
13174;DHT22;6652;48.802;9.190;2023-08-17T13:01:55;30.10;99.90
13174;DHT22;6652;48.802;9.190;2023-08-17T13:04:21;29.80;99.90
13174;DHT22;6652;48.802;9.190;2023-08-17T13:06:48;29.80;99.90
13174;DHT22;6652;48.802;9.190;2023-08-17T13:09:16;29.90;99.90
13174;DHT22;6652;48.802;9.190;2023-08-17T13:11:44;29.60;99.90
13174;DHT22;6652;48.802;9.190;2023-08-17T13:14:12;29.40;99.90
13174;DHT22;6652;48.802;9.190;2023-08-17T13:16:39;29.30;99.90
13174;DHT22;6652;48.802;9.190;2023-08-17T13:19:06;29.20;99.90
13174;DHT22;6652;48.802;9.190;2023-08-17T13:21:32;28.90;99.90
13174;DHT22;6652;48.802;9.190;2023-08-17T13:23:59;28.60;99.90
13174;DHT22;6652;48.802;9.190;2023-08-17T13:26:28;28.50;99.90
13174;DHT22;6652;48.802;9.190;2023-08-17T13:28:55;28.20;99.90
13174;DHT22;6652;48.802;9.190;2023-08-17T13:31:23;28.00;99.90
13174;DHT22;6652;48.802;9.190;2023-08-17T13:33:50;27.90;99.90
13174;DHT22;6652;48.802;9.190;2023-08-17T13:36:18;27.70;99.90
13174;DHT22;6652;48.802;9.190;2023-08-17T13:38:45;27.70;99.90
13174;DHT22;6652;48.802;9.190;2023-08-17T13:41:12;27.40;99.90
13174;DHT22;6652;48.802;9.190;2023-08-17T13:43:39;27.30;99.90
13174;DHT22;6652;48.802;9.190;2023-08-17T13:46:06;27.10;99.90
13174;DHT22;6652;48.802;9.190;2023-08-17T13:48:34;27.00;99.90
13174;DHT22;6652;48.802;9.190;2023-08-17T13:51:00;26.90;99.90
13174;DHT22;6652;48.802;9.190;2023-08-17T13:53:27;26.80;99.90
13174;DHT22;6652;48.802;9.190;2023-08-17T13:55:54;26.70;99.90
13174;DHT22;6652;48.802;9.190;2023-08-17T13:58:21;26.70;99.90
13174;DHT22;6652;48.802;9.190;2023-08-17T14:00:48;26.50;99.90
13174;DHT22;6652;48.802;9.190;2023-08-17T14:03:14;26.20;99.90
13174;DHT22;6652;48.802;9.190;2023-08-17T14:05:43;26.40;99.90
13174;DHT22;6652;48.802;9.190;2023-08-17T14:08:10;26.20;99.90
13174;DHT22;6652;48.802;9.190;2023-08-17T14:10:37;26.20;99.90
13174;DHT22;6652;48.802;9.190;2023-08-17T14:13:04;26.10;99.90
13174;DHT22;6652;48.802;9.190;2023-08-17T14:15:31;26.10;99.90
13174;DHT22;6652;48.802;9.190;2023-08-17T14:17:57;26.10;99.90
13174;DHT22;6652;48.802;9.190;2023-08-17T14:20:24;26.00;99.90
13174;DHT22;6652;48.802;9.190;2023-08-17T14:22:52;26.00;99.90
13174;DHT22;6652;48.802;9.190;2023-08-17T14:25:19;25.90;99.90
13174;DHT22;6652;48.802;9.190;2023-08-17T14:27:46;25.90;99.90
13174;DHT22;6652;48.802;9.190;2023-08-17T14:30:13;25.90;99.90
13174;DHT22;6652;48.802;9.190;2023-08-17T14:32:39;26.00;99.90
13174;DHT22;6652;48.802;9.190;2023-08-17T14:35:07;25.90;99.90
13174;DHT22;6652;48.802;9.190;2023-08-17T14:37:33;25.90;99.90
13174;DHT22;6652;48.802;9.190;2023-08-17T14:40:02;26.00;99.90
13174;DHT22;6652;48.802;9.190;2023-08-17T14:42:29;26.00;99.90
13174;DHT22;6652;48.802;9.190;2023-08-17T14:44:56;26.20;99.90
13174;DHT22;6652;48.802;9.190;2023-08-17T14:47:22;26.20;99.90
13174;DHT22;6652;48.802;9.190;2023-08-17T14:49:49;26.30;99.90
13174;DHT22;6652;48.802;9.190;2023-08-17T14:52:16;26.40;99.90
13174;DHT22;6652;48.802;9.190;2023-08-17T14:54:43;26.50;99.90
13174;DHT22;6652;48.802;9.190;2023-08-17T14:57:11;26.50;99.90
13174;DHT22;6652;48.802;9.190;2023-08-17T14:59:37;26.50;99.90
13174;DHT22;6652;48.802;9.190;2023-08-17T15:02:04;26.50;99.90
13174;DHT22;6652;48.802;9.190;2023-08-17T15:04:31;26.50;99.90
13174;DHT22;6652;48.802;9.190;2023-08-17T15:06:58;26.50;99.90
13174;DHT22;6652;48.802;9.190;2023-08-17T15:09:25;26.50;99.90
13174;DHT22;6652;48.802;9.190;2023-08-17T15:11:52;26.60;99.90
13174;DHT22;6652;48.802;9.190;2023-08-17T15:14:20;26.70;99.90
13174;DHT22;6652;48.802;9.190;2023-08-17T15:16:46;26.90;99.90
13174;DHT22;6652;48.802;9.190;2023-08-17T15:19:13;27.10;99.90
13174;DHT22;6652;48.802;9.190;2023-08-17T15:21:40;26.90;99.90
13174;DHT22;6652;48.802;9.190;2023-08-17T15:24:07;27.00;99.90
13174;DHT22;6652;48.802;9.190;2023-08-17T15:26:33;27.00;99.90
13174;DHT22;6652;48.802;9.190;2023-08-17T15:29:00;27.00;99.90
13174;DHT22;6652;48.802;9.190;2023-08-17T15:31:28;27.10;99.90
13174;DHT22;6652;48.802;9.190;2023-08-17T15:33:55;27.10;99.90
13174;DHT22;6652;48.802;9.190;2023-08-17T15:36:22;27.10;99.90
13174;DHT22;6652;48.802;9.190;2023-08-17T15:38:49;27.10;99.90
13174;DHT22;6652;48.802;9.190;2023-08-17T15:41:17;27.10;99.90
13174;DHT22;6652;48.802;9.190;2023-08-17T15:43:44;27.10;99.90
13174;DHT22;6652;48.802;9.190;2023-08-17T15:46:11;27.40;99.90